sensor_id;sensor_type;location;lat;lon;timestamp;temperature;humidity
24402;DHT22;12539;48.808;11.292;2022-11-03T00:01:07;9.80;99.90
24402;DHT22;12539;48.808;11.292;2022-11-03T00:03:33;9.80;99.90
24402;DHT22;12539;48.808;11.292;2022-11-03T00:05:59;9.80;99.90
24402;DHT22;12539;48.808;11.292;2022-11-03T00:08:41;9.80;99.90
24402;DHT22;12539;48.808;11.292;2022-11-03T00:11:08;9.90;99.90
24402;DHT22;12539;48.808;11.292;2022-11-03T00:13:34;9.90;99.90
24402;DHT22;12539;48.808;11.292;2022-11-03T00:16:00;9.90;99.90
24402;DHT22;12539;48.808;11.292;2022-11-03T00:18:26;9.90;99.90
24402;DHT22;12539;48.808;11.292;2022-11-03T00:21:03;9.90;99.90
24402;DHT22;12539;48.808;11.292;2022-11-03T00:23:31;9.90;99.90
24402;DHT22;12539;48.808;11.292;2022-11-03T00:26:11;9.90;99.90
24402;DHT22;12539;48.808;11.292;2022-11-03T00:28:38;9.90;99.90
24402;DHT22;12539;48.808;11.292;2022-11-03T00:31:09;9.90;99.90
24402;DHT22;12539;48.808;11.292;2022-11-03T00:33:36;9.90;99.90
24402;DHT22;12539;48.808;11.292;2022-11-03T00:36:02;9.90;99.90
24402;DHT22;12539;48.808;11.292;2022-11-03T00:38:29;9.90;99.90
24402;DHT22;12539;48.808;11.292;2022-11-03T00:40:55;9.90;99.90
24402;DHT22;12539;48.808;11.292;2022-11-03T00:43:21;9.90;99.90
24402;DHT22;12539;48.808;11.292;2022-11-03T00:45:47;9.80;99.90
24402;DHT22;12539;48.808;11.292;2022-11-03T00:48:13;9.80;99.90
24402;DHT22;12539;48.808;11.292;2022-11-03T00:51:05;9.80;99.90
24402;DHT22;12539;48.808;11.292;2022-11-03T00:53:42;9.80;99.90
24402;DHT22;12539;48.808;11.292;2022-11-03T00:56:22;9.80;99.90
24402;DHT22;12539;48.808;11.292;2022-11-03T00:58:48;9.70;99.90
24402;DHT22;12539;48.808;11.292;2022-11-03T01:01:17;9.70;99.90
24402;DHT22;12539;48.808;11.292;2022-11-03T01:03:45;9.60;99.90
24402;DHT22;12539;48.808;11.292;2022-11-03T01:06:32;9.60;99.90
24402;DHT22;12539;48.808;11.292;2022-11-03T01:09:39;9.50;99.90
24402;DHT22;12539;48.808;11.292;2022-11-03T01:12:16;9.50;99.90
24402;DHT22;12539;48.808;11.292;2022-11-03T01:14:49;9.50;99.90
24402;DHT22;12539;48.808;11.292;2022-11-03T01:17:20;9.50;99.90
24402;DHT22;12539;48.808;11.292;2022-11-03T01:19:47;9.50;99.90
24402;DHT22;12539;48.808;11.292;2022-11-03T01:22:14;9.50;99.90
24402;DHT22;12539;48.808;11.292;2022-11-03T01:24:43;9.50;99.90
24402;DHT22;12539;48.808;11.292;2022-11-03T01:27:11;9.60;99.90
24402;DHT22;12539;48.808;11.292;2022-11-03T01:29:38;9.60;99.90
24402;DHT22;12539;48.808;11.292;2022-11-03T01:32:04;9.60;99.90
24402;DHT22;12539;48.808;11.292;2022-11-03T01:34:30;9.70;99.90
24402;DHT22;12539;48.808;11.292;2022-11-03T01:36:55;9.70;99.90
24402;DHT22;12539;48.808;11.292;2022-11-03T01:39:21;9.70;99.90
24402;DHT22;12539;48.808;11.292;2022-11-03T01:41:49;9.70;99.90
24402;DHT22;12539;48.808;11.292;2022-11-03T01:52:05;9.70;99.90
24402;DHT22;12539;48.808;11.292;2022-11-03T01:54:33;9.70;99.90
24402;DHT22;12539;48.808;11.292;2022-11-03T01:57:04;9.60;99.90
24402;DHT22;12539;48.808;11.292;2022-11-03T01:59:31;9.50;99.90
24402;DHT22;12539;48.808;11.292;2022-11-03T02:01:57;9.50;99.90
24402;DHT22;12539;48.808;11.292;2022-11-03T02:04:26;9.40;99.90
24402;DHT22;12539;48.808;11.292;2022-11-03T02:07:01;9.40;99.90
24402;DHT22;12539;48.808;11.292;2022-11-03T02:09:30;9.50;99.90
24402;DHT22;12539;48.808;11.292;2022-11-03T02:11:56;9.50;99.90
24402;DHT22;12539;48.808;11.292;2022-11-03T02:14:31;9.50;99.90
24402;DHT22;12539;48.808;11.292;2022-11-03T02:17:00;9.40;99.90
24402;DHT22;12539;48.808;11.292;2022-11-03T02:19:42;9.50;99.90
24402;DHT22;12539;48.808;11.292;2022-11-03T02:28:05;9.30;99.90
24402;DHT22;12539;48.808;11.292;2022-11-03T02:36:21;9.40;99.90
24402;DHT22;12539;48.808;11.292;2022-11-03T02:41:21;9.40;99.90
24402;DHT22;12539;48.808;11.292;2022-11-03T02:43:49;9.30;99.90
24402;DHT22;12539;48.808;11.292;2022-11-03T02:46:15;9.30;99.90
24402;DHT22;12539;48.808;11.292;2022-11-03T02:48:42;9.30;99.90
24402;DHT22;12539;48.808;11.292;2022-11-03T02:51:07;9.30;99.90
24402;DHT22;12539;48.808;11.292;2022-11-03T02:53:38;9.30;99.90
24402;DHT22;12539;48.808;11.292;2022-11-03T02:56:12;9.30;99.90
24402;DHT22;12539;48.808;11.292;2022-11-03T03:01:40;9.30;99.90
24402;DHT22;12539;48.808;11.292;2022-11-03T03:04:19;9.30;99.90
24402;DHT22;12539;48.808;11.292;2022-11-03T03:07:08;9.30;99.90
24402;DHT22;12539;48.808;11.292;2022-11-03T03:09:45;9.30;99.90
24402;DHT22;12539;48.808;11.292;2022-11-03T03:12:17;9.30;99.90
24402;DHT22;12539;48.808;11.292;2022-11-03T03:14:45;9.30;99.90
24402;DHT22;12539;48.808;11.292;2022-11-03T03:17:41;9.30;99.90
24402;DHT22;12539;48.808;11.292;2022-11-03T03:20:13;9.30;99.90
24402;DHT22;12539;48.808;11.292;2022-11-03T03:22:50;9.30;99.90
24402;DHT22;12539;48.808;11.292;2022-11-03T03:25:33;9.30;99.90
24402;DHT22;12539;48.808;11.292;2022-11-03T03:28:03;9.20;99.90
24402;DHT22;12539;48.808;11.292;2022-11-03T03:30:32;9.20;99.90
24402;DHT22;12539;48.808;11.292;2022-11-03T03:33:01;9.20;99.90
24402;DHT22;12539;48.808;11.292;2022-11-03T03:35:29;9.20;99.90
24402;DHT22;12539;48.808;11.292;2022-11-03T03:38:16;9.20;99.90
24402;DHT22;12539;48.808;11.292;2022-11-03T03:40:46;9.20;99.90
24402;DHT22;12539;48.808;11.292;2022-11-03T03:43:13;9.20;99.90
24402;DHT22;12539;48.808;11.292;2022-11-03T03:45:42;9.20;99.90
24402;DHT22;12539;48.808;11.292;2022-11-03T03:48:08;9.20;99.90
24402;DHT22;12539;48.808;11.292;2022-11-03T03:50:36;9.20;99.90
24402;DHT22;12539;48.808;11.292;2022-11-03T03:53:05;9.20;99.90
24402;DHT22;12539;48.808;11.292;2022-11-03T03:55:37;9.20;99.90
24402;DHT22;12539;48.808;11.292;2022-11-03T03:58:04;9.20;99.90
24402;DHT22;12539;48.808;11.292;2022-11-03T04:00:30;9.20;99.90
24402;DHT22;12539;48.808;11.292;2022-11-03T04:02:56;9.20;99.90
24402;DHT22;12539;48.808;11.292;2022-11-03T04:05:26;9.30;99.90
24402;DHT22;12539;48.808;11.292;2022-11-03T04:07:52;9.20;99.90
24402;DHT22;12539;48.808;11.292;2022-11-03T04:10:21;9.20;99.90
24402;DHT22;12539;48.808;11.292;2022-11-03T04:12:47;9.30;99.90
24402;DHT22;12539;48.808;11.292;2022-11-03T04:15:32;9.30;99.90
24402;DHT22;12539;48.808;11.292;2022-11-03T04:18:07;9.30;99.90
24402;DHT22;12539;48.808;11.292;2022-11-03T04:20:51;9.20;99.90
24402;DHT22;12539;48.808;11.292;2022-11-03T04:23:35;9.20;99.90
24402;DHT22;12539;48.808;11.292;2022-11-03T04:26:01;9.10;99.90
24402;DHT22;12539;48.808;11.292;2022-11-03T04:28:28;9.10;99.90
24402;DHT22;12539;48.808;11.292;2022-11-03T04:30:58;9.00;99.90
24402;DHT22;12539;48.808;11.292;2022-11-03T04:33:24;9.00;99.90
24402;DHT22;12539;48.808;11.292;2022-11-03T04:35:52;9.00;99.90
24402;DHT22;12539;48.808;11.292;2022-11-03T04:38:21;8.90;99.90
24402;DHT22;12539;48.808;11.292;2022-11-03T04:40:58;9.00;99.90
24402;DHT22;12539;48.808;11.292;2022-11-03T04:43:34;9.00;99.90
24402;DHT22;12539;48.808;11.292;2022-11-03T04:46:01;9.10;99.90
24402;DHT22;12539;48.808;11.292;2022-11-03T04:48:28;9.10;99.90
24402;DHT22;12539;48.808;11.292;2022-11-03T04:50:58;9.10;99.90
24402;DHT22;12539;48.808;11.292;2022-11-03T04:53:28;9.10;99.90
24402;DHT22;12539;48.808;11.292;2022-11-03T04:55:54;9.10;99.90
24402;DHT22;12539;48.808;11.292;2022-11-03T04:58:31;9.10;99.90
24402;DHT22;12539;48.808;11.292;2022-11-03T05:00:59;9.20;99.90
24402;DHT22;12539;48.808;11.292;2022-11-03T05:03:33;9.20;99.90
24402;DHT22;12539;48.808;11.292;2022-11-03T05:06:13;9.20;99.90
24402;DHT22;12539;48.808;11.292;2022-11-03T05:08:40;9.20;99.90
24402;DHT22;12539;48.808;11.292;2022-11-03T05:13:51;9.40;99.90
24402;DHT22;12539;48.808;11.292;2022-11-03T05:16:18;9.30;99.90
24402;DHT22;12539;48.808;11.292;2022-11-03T05:18:46;9.40;99.90
24402;DHT22;12539;48.808;11.292;2022-11-03T05:21:17;9.40;99.90
24402;DHT22;12539;48.808;11.292;2022-11-03T05:23:53;9.50;99.90
24402;DHT22;12539;48.808;11.292;2022-11-03T05:26:24;9.60;99.90
24402;DHT22;12539;48.808;11.292;2022-11-03T05:28:54;9.70;99.90
24402;DHT22;12539;48.808;11.292;2022-11-03T05:31:31;9.70;99.90
24402;DHT22;12539;48.808;11.292;2022-11-03T05:34:11;9.70;99.90
24402;DHT22;12539;48.808;11.292;2022-11-03T05:36:38;9.70;99.90
24402;DHT22;12539;48.808;11.292;2022-11-03T05:39:30;9.60;99.90
24402;DHT22;12539;48.808;11.292;2022-11-03T05:41:59;9.60;99.90
24402;DHT22;12539;48.808;11.292;2022-11-03T05:44:36;9.50;99.90
24402;DHT22;12539;48.808;11.292;2022-11-03T05:47:25;9.50;99.90
24402;DHT22;12539;48.808;11.292;2022-11-03T05:49:54;9.50;99.90
24402;DHT22;12539;48.808;11.292;2022-11-03T05:52:26;9.50;99.90
24402;DHT22;12539;48.808;11.292;2022-11-03T05:54:58;9.40;99.90
24402;DHT22;12539;48.808;11.292;2022-11-03T05:57:25;9.40;99.90
24402;DHT22;12539;48.808;11.292;2022-11-03T05:59:53;9.30;99.90
24402;DHT22;12539;48.808;11.292;2022-11-03T06:02:38;9.30;99.90
24402;DHT22;12539;48.808;11.292;2022-11-03T06:05:17;9.30;99.90
24402;DHT22;12539;48.808;11.292;2022-11-03T06:07:44;9.20;99.90
24402;DHT22;12539;48.808;11.292;2022-11-03T06:10:38;9.30;99.90
24402;DHT22;12539;48.808;11.292;2022-11-03T06:13:12;9.30;99.90
24402;DHT22;12539;48.808;11.292;2022-11-03T06:15:41;9.30;99.90
24402;DHT22;12539;48.808;11.292;2022-11-03T06:18:35;9.40;99.90
24402;DHT22;12539;48.808;11.292;2022-11-03T06:21:22;9.40;99.90
24402;DHT22;12539;48.808;11.292;2022-11-03T06:23:49;9.50;99.90
24402;DHT22;12539;48.808;11.292;2022-11-03T06:26:18;9.50;99.90
24402;DHT22;12539;48.808;11.292;2022-11-03T06:28:45;9.50;99.90
24402;DHT22;12539;48.808;11.292;2022-11-03T06:31:30;9.40;99.90
24402;DHT22;12539;48.808;11.292;2022-11-03T06:33:57;9.50;99.90
24402;DHT22;12539;48.808;11.292;2022-11-03T06:36:31;9.60;99.90
24402;DHT22;12539;48.808;11.292;2022-11-03T06:39:12;9.70;99.90
24402;DHT22;12539;48.808;11.292;2022-11-03T06:41:41;9.70;99.90
24402;DHT22;12539;48.808;11.292;2022-11-03T06:44:25;9.80;99.90
24402;DHT22;12539;48.808;11.292;2022-11-03T06:47:07;9.80;99.90
24402;DHT22;12539;48.808;11.292;2022-11-03T06:49:39;9.80;99.90
24402;DHT22;12539;48.808;11.292;2022-11-03T06:52:19;9.80;99.90
24402;DHT22;12539;48.808;11.292;2022-11-03T06:54:48;9.80;99.90
24402;DHT22;12539;48.808;11.292;2022-11-03T06:57:15;9.70;99.90
24402;DHT22;12539;48.808;11.292;2022-11-03T06:59:43;9.60;99.90
24402;DHT22;12539;48.808;11.292;2022-11-03T07:03:04;9.50;99.90
24402;DHT22;12539;48.808;11.292;2022-11-03T07:05:26;9.50;99.90
24402;DHT22;12539;48.808;11.292;2022-11-03T07:07:54;9.50;99.90
24402;DHT22;12539;48.808;11.292;2022-11-03T07:10:28;9.60;99.90
24402;DHT22;12539;48.808;11.292;2022-11-03T07:12:55;9.60;99.90
24402;DHT22;12539;48.808;11.292;2022-11-03T07:15:29;9.60;99.90
24402;DHT22;12539;48.808;11.292;2022-11-03T07:17:58;9.70;99.90
24402;DHT22;12539;48.808;11.292;2022-11-03T07:20:24;9.60;99.90
24402;DHT22;12539;48.808;11.292;2022-11-03T07:22:51;9.60;99.90
24402;DHT22;12539;48.808;11.292;2022-11-03T07:25:20;9.70;99.90
24402;DHT22;12539;48.808;11.292;2022-11-03T07:27:51;9.80;99.90
24402;DHT22;12539;48.808;11.292;2022-11-03T07:30:33;9.90;99.90
24402;DHT22;12539;48.808;11.292;2022-11-03T07:33:19;10.10;99.90
24402;DHT22;12539;48.808;11.292;2022-11-03T07:35:47;10.10;99.90
24402;DHT22;12539;48.808;11.292;2022-11-03T07:38:23;10.20;99.90
24402;DHT22;12539;48.808;11.292;2022-11-03T07:40:50;10.30;99.90
24402;DHT22;12539;48.808;11.292;2022-11-03T07:43:24;10.40;99.90
24402;DHT22;12539;48.808;11.292;2022-11-03T07:45:53;10.60;99.90
24402;DHT22;12539;48.808;11.292;2022-11-03T07:48:43;10.70;99.90
24402;DHT22;12539;48.808;11.292;2022-11-03T07:53:49;11.00;99.90
24402;DHT22;12539;48.808;11.292;2022-11-03T07:56:22;11.10;99.90
24402;DHT22;12539;48.808;11.292;2022-11-03T07:58:53;11.20;99.90
24402;DHT22;12539;48.808;11.292;2022-11-03T08:03:49;11.20;99.90
24402;DHT22;12539;48.808;11.292;2022-11-03T08:06:15;11.20;99.90
24402;DHT22;12539;48.808;11.292;2022-11-03T08:08:41;11.20;99.90
24402;DHT22;12539;48.808;11.292;2022-11-03T08:11:07;11.20;99.90
24402;DHT22;12539;48.808;11.292;2022-11-03T08:13:32;11.20;99.90
24402;DHT22;12539;48.808;11.292;2022-11-03T08:15:58;11.20;99.90
24402;DHT22;12539;48.808;11.292;2022-11-03T08:18:24;11.20;99.90
24402;DHT22;12539;48.808;11.292;2022-11-03T08:20:50;11.20;99.90
24402;DHT22;12539;48.808;11.292;2022-11-03T08:23:15;11.30;99.90
24402;DHT22;12539;48.808;11.292;2022-11-03T08:25:42;11.30;99.90
24402;DHT22;12539;48.808;11.292;2022-11-03T08:28:07;11.30;99.90
24402;DHT22;12539;48.808;11.292;2022-11-03T08:30:33;11.30;99.90
24402;DHT22;12539;48.808;11.292;2022-11-03T08:32:59;11.40;99.90
24402;DHT22;12539;48.808;11.292;2022-11-03T08:35:25;11.40;99.90
24402;DHT22;12539;48.808;11.292;2022-11-03T08:37:51;11.40;99.90
24402;DHT22;12539;48.808;11.292;2022-11-03T08:40:16;11.50;99.90
24402;DHT22;12539;48.808;11.292;2022-11-03T08:42:43;11.50;99.90
24402;DHT22;12539;48.808;11.292;2022-11-03T08:45:09;11.60;99.90
24402;DHT22;12539;48.808;11.292;2022-11-03T08:47:35;11.60;99.90
24402;DHT22;12539;48.808;11.292;2022-11-03T08:50:02;11.60;99.90
24402;DHT22;12539;48.808;11.292;2022-11-03T08:52:28;11.70;99.90
24402;DHT22;12539;48.808;11.292;2022-11-03T08:54:53;11.70;99.90
24402;DHT22;12539;48.808;11.292;2022-11-03T08:57:19;11.80;99.90
24402;DHT22;12539;48.808;11.292;2022-11-03T08:59:45;11.80;99.90
24402;DHT22;12539;48.808;11.292;2022-11-03T09:02:10;11.80;99.90
24402;DHT22;12539;48.808;11.292;2022-11-03T09:04:36;11.80;99.90
24402;DHT22;12539;48.808;11.292;2022-11-03T09:07:02;11.80;99.90
24402;DHT22;12539;48.808;11.292;2022-11-03T09:09:27;11.80;99.90
24402;DHT22;12539;48.808;11.292;2022-11-03T09:11:53;11.80;99.90
24402;DHT22;12539;48.808;11.292;2022-11-03T09:14:19;11.80;99.90
24402;DHT22;12539;48.808;11.292;2022-11-03T09:16:44;11.80;99.90
24402;DHT22;12539;48.808;11.292;2022-11-03T09:19:10;11.90;99.90
24402;DHT22;12539;48.808;11.292;2022-11-03T09:21:36;12.00;99.90
24402;DHT22;12539;48.808;11.292;2022-11-03T09:24:01;12.10;99.90
24402;DHT22;12539;48.808;11.292;2022-11-03T09:26:27;12.10;99.90
24402;DHT22;12539;48.808;11.292;2022-11-03T09:28:53;12.20;99.90
24402;DHT22;12539;48.808;11.292;2022-11-03T09:31:18;12.10;99.90
24402;DHT22;12539;48.808;11.292;2022-11-03T09:33:44;12.20;99.90
24402;DHT22;12539;48.808;11.292;2022-11-03T09:36:10;12.20;99.90
24402;DHT22;12539;48.808;11.292;2022-11-03T09:38:36;12.10;99.90
24402;DHT22;12539;48.808;11.292;2022-11-03T09:41:03;12.20;99.90
24402;DHT22;12539;48.808;11.292;2022-11-03T09:43:30;12.20;99.90
24402;DHT22;12539;48.808;11.292;2022-11-03T09:45:57;12.10;99.90
24402;DHT22;12539;48.808;11.292;2022-11-03T09:48:23;12.10;99.90
24402;DHT22;12539;48.808;11.292;2022-11-03T09:50:52;12.10;99.90
24402;DHT22;12539;48.808;11.292;2022-11-03T09:53:19;12.00;99.90
24402;DHT22;12539;48.808;11.292;2022-11-03T09:55:45;12.00;99.90
24402;DHT22;12539;48.808;11.292;2022-11-03T09:58:16;12.00;99.90
24402;DHT22;12539;48.808;11.292;2022-11-03T10:00:42;11.90;99.90
24402;DHT22;12539;48.808;11.292;2022-11-03T10:03:12;11.80;99.90
24402;DHT22;12539;48.808;11.292;2022-11-03T10:05:39;11.70;99.90
24402;DHT22;12539;48.808;11.292;2022-11-03T10:08:10;11.70;99.90
24402;DHT22;12539;48.808;11.292;2022-11-03T10:10:36;11.80;99.90
24402;DHT22;12539;48.808;11.292;2022-11-03T10:13:04;11.80;99.90
24402;DHT22;12539;48.808;11.292;2022-11-03T10:15:34;11.90;99.90
24402;DHT22;12539;48.808;11.292;2022-11-03T10:18:00;11.80;99.90
24402;DHT22;12539;48.808;11.292;2022-11-03T10:20:27;11.80;99.90
24402;DHT22;12539;48.808;11.292;2022-11-03T10:22:54;11.80;99.90
24402;DHT22;12539;48.808;11.292;2022-11-03T10:25:36;11.70;99.90
24402;DHT22;12539;48.808;11.292;2022-11-03T10:31:01;11.80;99.90
24402;DHT22;12539;48.808;11.292;2022-11-03T10:33:37;11.80;99.90
24402;DHT22;12539;48.808;11.292;2022-11-03T10:38:39;12.00;99.90
24402;DHT22;12539;48.808;11.292;2022-11-03T10:41:14;12.00;99.90
24402;DHT22;12539;48.808;11.292;2022-11-03T10:43:42;12.00;99.90
24402;DHT22;12539;48.808;11.292;2022-11-03T10:46:15;12.00;99.90
24402;DHT22;12539;48.808;11.292;2022-11-03T10:48:42;12.10;99.90
24402;DHT22;12539;48.808;11.292;2022-11-03T10:51:12;12.20;99.90
24402;DHT22;12539;48.808;11.292;2022-11-03T10:53:39;12.20;99.90
24402;DHT22;12539;48.808;11.292;2022-11-03T10:56:05;12.20;99.90
24402;DHT22;12539;48.808;11.292;2022-11-03T10:58:31;12.30;99.90
24402;DHT22;12539;48.808;11.292;2022-11-03T11:00:58;12.40;99.90
24402;DHT22;12539;48.808;11.292;2022-11-03T11:03:24;12.50;99.90
24402;DHT22;12539;48.808;11.292;2022-11-03T11:05:50;12.60;99.90
24402;DHT22;12539;48.808;11.292;2022-11-03T11:08:21;12.60;99.90
24402;DHT22;12539;48.808;11.292;2022-11-03T11:10:50;12.70;99.90
24402;DHT22;12539;48.808;11.292;2022-11-03T11:15:52;12.70;99.90
24402;DHT22;12539;48.808;11.292;2022-11-03T11:20:57;12.60;99.90
24402;DHT22;12539;48.808;11.292;2022-11-03T11:23:43;12.60;99.90
24402;DHT22;12539;48.808;11.292;2022-11-03T11:28:45;12.70;99.90
24402;DHT22;12539;48.808;11.292;2022-11-03T11:31:31;12.70;99.90
24402;DHT22;12539;48.808;11.292;2022-11-03T11:42:06;12.70;99.90
24402;DHT22;12539;48.808;11.292;2022-11-03T11:47:27;12.80;99.90
24402;DHT22;12539;48.808;11.292;2022-11-03T11:52:55;12.90;99.90
24402;DHT22;12539;48.808;11.292;2022-11-03T11:55:29;13.00;99.90
24402;DHT22;12539;48.808;11.292;2022-11-03T11:57:58;13.00;99.90
24402;DHT22;12539;48.808;11.292;2022-11-03T12:00:26;13.00;99.90
24402;DHT22;12539;48.808;11.292;2022-11-03T12:02:53;13.00;99.90
24402;DHT22;12539;48.808;11.292;2022-11-03T12:05:29;13.00;99.90
24402;DHT22;12539;48.808;11.292;2022-11-03T12:07:55;13.00;99.90
24402;DHT22;12539;48.808;11.292;2022-11-03T12:10:27;12.90;99.90
24402;DHT22;12539;48.808;11.292;2022-11-03T12:12:54;12.80;99.90
24402;DHT22;12539;48.808;11.292;2022-11-03T12:15:55;12.70;99.90
24402;DHT22;12539;48.808;11.292;2022-11-03T12:18:28;12.70;99.90
24402;DHT22;12539;48.808;11.292;2022-11-03T12:20:54;12.60;99.90
24402;DHT22;12539;48.808;11.292;2022-11-03T12:26:04;12.70;99.90
24402;DHT22;12539;48.808;11.292;2022-11-03T12:28:34;12.70;99.90
24402;DHT22;12539;48.808;11.292;2022-11-03T12:31:00;12.60;99.90
24402;DHT22;12539;48.808;11.292;2022-11-03T12:33:27;12.60;99.90
24402;DHT22;12539;48.808;11.292;2022-11-03T12:35:53;12.50;99.90
24402;DHT22;12539;48.808;11.292;2022-11-03T12:38:19;12.50;99.90
24402;DHT22;12539;48.808;11.292;2022-11-03T12:40:45;12.50;99.90
24402;DHT22;12539;48.808;11.292;2022-11-03T12:43:10;12.60;99.90
24402;DHT22;12539;48.808;11.292;2022-11-03T12:45:36;12.50;99.90
24402;DHT22;12539;48.808;11.292;2022-11-03T12:48:02;12.50;99.90
24402;DHT22;12539;48.808;11.292;2022-11-03T12:50:28;12.50;99.90
24402;DHT22;12539;48.808;11.292;2022-11-03T12:52:53;12.50;99.90
24402;DHT22;12539;48.808;11.292;2022-11-03T12:55:19;12.50;99.90
24402;DHT22;12539;48.808;11.292;2022-11-03T12:57:45;12.50;99.90
24402;DHT22;12539;48.808;11.292;2022-11-03T13:00:11;12.60;99.90
24402;DHT22;12539;48.808;11.292;2022-11-03T13:02:37;12.60;99.90
24402;DHT22;12539;48.808;11.292;2022-11-03T13:05:04;12.50;99.90
24402;DHT22;12539;48.808;11.292;2022-11-03T13:07:30;12.50;99.90
24402;DHT22;12539;48.808;11.292;2022-11-03T13:09:55;12.60;99.90
24402;DHT22;12539;48.808;11.292;2022-11-03T13:12:21;12.50;99.90
24402;DHT22;12539;48.808;11.292;2022-11-03T13:15:00;12.60;99.90
24402;DHT22;12539;48.808;11.292;2022-11-03T13:17:27;12.60;99.90
24402;DHT22;12539;48.808;11.292;2022-11-03T13:19:52;12.50;99.90
24402;DHT22;12539;48.808;11.292;2022-11-03T13:22:18;12.40;99.90
24402;DHT22;12539;48.808;11.292;2022-11-03T13:24:45;12.40;99.90
24402;DHT22;12539;48.808;11.292;2022-11-03T13:27:11;12.50;99.90
24402;DHT22;12539;48.808;11.292;2022-11-03T13:29:36;12.50;99.90
24402;DHT22;12539;48.808;11.292;2022-11-03T13:32:03;12.40;99.90
24402;DHT22;12539;48.808;11.292;2022-11-03T13:34:29;12.30;99.90
24402;DHT22;12539;48.808;11.292;2022-11-03T13:36:55;12.30;99.90
24402;DHT22;12539;48.808;11.292;2022-11-03T13:39:20;12.30;99.90
24402;DHT22;12539;48.808;11.292;2022-11-03T13:41:46;12.30;99.90
24402;DHT22;12539;48.808;11.292;2022-11-03T13:44:12;12.20;99.90
24402;DHT22;12539;48.808;11.292;2022-11-03T13:46:38;12.20;99.90
24402;DHT22;12539;48.808;11.292;2022-11-03T13:49:03;12.30;99.90
24402;DHT22;12539;48.808;11.292;2022-11-03T13:51:29;12.30;99.90
24402;DHT22;12539;48.808;11.292;2022-11-03T13:53:55;12.30;99.90
24402;DHT22;12539;48.808;11.292;2022-11-03T13:56:20;12.30;99.90
24402;DHT22;12539;48.808;11.292;2022-11-03T13:58:46;12.20;99.90
24402;DHT22;12539;48.808;11.292;2022-11-03T14:01:12;12.20;99.90
24402;DHT22;12539;48.808;11.292;2022-11-03T14:03:38;12.20;99.90
24402;DHT22;12539;48.808;11.292;2022-11-03T14:06:14;12.20;99.90
24402;DHT22;12539;48.808;11.292;2022-11-03T14:08:40;12.20;99.90
24402;DHT22;12539;48.808;11.292;2022-11-03T14:11:05;12.20;99.90
24402;DHT22;12539;48.808;11.292;2022-11-03T14:13:50;12.20;99.90
24402;DHT22;12539;48.808;11.292;2022-11-03T14:16:15;12.30;99.90
24402;DHT22;12539;48.808;11.292;2022-11-03T14:18:41;12.30;99.90
24402;DHT22;12539;48.808;11.292;2022-11-03T14:21:07;12.30;99.90
24402;DHT22;12539;48.808;11.292;2022-11-03T14:23:32;12.30;99.90
24402;DHT22;12539;48.808;11.292;2022-11-03T14:25:58;12.30;99.90
24402;DHT22;12539;48.808;11.292;2022-11-03T14:28:23;12.30;99.90
24402;DHT22;12539;48.808;11.292;2022-11-03T14:30:49;12.30;99.90
24402;DHT22;12539;48.808;11.292;2022-11-03T14:33:16;12.30;99.90
24402;DHT22;12539;48.808;11.292;2022-11-03T14:35:41;12.30;99.90
24402;DHT22;12539;48.808;11.292;2022-11-03T14:38:07;12.30;99.90
24402;DHT22;12539;48.808;11.292;2022-11-03T14:40:32;12.30;99.90
24402;DHT22;12539;48.808;11.292;2022-11-03T14:43:17;12.30;99.90
24402;DHT22;12539;48.808;11.292;2022-11-03T14:45:42;12.20;99.90
24402;DHT22;12539;48.808;11.292;2022-11-03T14:48:08;12.20;99.90
24402;DHT22;12539;48.808;11.292;2022-11-03T14:50:33;12.20;99.90
24402;DHT22;12539;48.808;11.292;2022-11-03T14:52:59;12.20;99.90
24402;DHT22;12539;48.808;11.292;2022-11-03T14:55:25;12.10;99.90
24402;DHT22;12539;48.808;11.292;2022-11-03T14:57:50;12.10;99.90
24402;DHT22;12539;48.808;11.292;2022-11-03T15:00:16;12.20;99.90
24402;DHT22;12539;48.808;11.292;2022-11-03T15:02:42;12.20;99.90
24402;DHT22;12539;48.808;11.292;2022-11-03T15:05:08;12.20;99.90
24402;DHT22;12539;48.808;11.292;2022-11-03T15:07:53;12.20;99.90
24402;DHT22;12539;48.808;11.292;2022-11-03T15:10:38;12.10;99.90
24402;DHT22;12539;48.808;11.292;2022-11-03T15:13:03;12.10;99.90
24402;DHT22;12539;48.808;11.292;2022-11-03T15:15:29;12.00;99.90
24402;DHT22;12539;48.808;11.292;2022-11-03T15:17:55;11.90;99.90
24402;DHT22;12539;48.808;11.292;2022-11-03T15:20:20;11.90;99.90
24402;DHT22;12539;48.808;11.292;2022-11-03T15:22:46;11.80;99.90
24402;DHT22;12539;48.808;11.292;2022-11-03T15:25:12;11.70;99.90
24402;DHT22;12539;48.808;11.292;2022-11-03T15:27:38;11.70;99.90
24402;DHT22;12539;48.808;11.292;2022-11-03T15:30:05;11.60;99.90
24402;DHT22;12539;48.808;11.292;2022-11-03T15:32:32;11.50;99.90
24402;DHT22;12539;48.808;11.292;2022-11-03T15:34:58;11.50;99.90
24402;DHT22;12539;48.808;11.292;2022-11-03T15:37:24;11.40;99.90
24402;DHT22;12539;48.808;11.292;2022-11-03T15:39:49;11.40;99.90
24402;DHT22;12539;48.808;11.292;2022-11-03T15:42:16;11.50;99.90
24402;DHT22;12539;48.808;11.292;2022-11-03T15:44:41;11.60;99.90
24402;DHT22;12539;48.808;11.292;2022-11-03T15:47:07;11.50;99.90
24402;DHT22;12539;48.808;11.292;2022-11-03T15:49:33;11.50;99.90
24402;DHT22;12539;48.808;11.292;2022-11-03T15:51:58;11.50;99.90
24402;DHT22;12539;48.808;11.292;2022-11-03T15:54:24;11.60;99.90
24402;DHT22;12539;48.808;11.292;2022-11-03T15:56:50;11.60;99.90
24402;DHT22;12539;48.808;11.292;2022-11-03T15:59:15;11.70;99.90
24402;DHT22;12539;48.808;11.292;2022-11-03T16:01:41;11.80;99.90
24402;DHT22;12539;48.808;11.292;2022-11-03T16:04:07;11.70;99.90
24402;DHT22;12539;48.808;11.292;2022-11-03T16:06:32;11.70;99.90
24402;DHT22;12539;48.808;11.292;2022-11-03T16:08:58;11.70;99.90
24402;DHT22;12539;48.808;11.292;2022-11-03T16:11:24;11.70;99.90
24402;DHT22;12539;48.808;11.292;2022-11-03T16:13:49;11.70;99.90
24402;DHT22;12539;48.808;11.292;2022-11-03T16:16:15;11.70;99.90
24402;DHT22;12539;48.808;11.292;2022-11-03T16:18:40;11.80;99.90
24402;DHT22;12539;48.808;11.292;2022-11-03T16:21:06;11.80;99.90
24402;DHT22;12539;48.808;11.292;2022-11-03T16:23:32;11.80;99.90
24402;DHT22;12539;48.808;11.292;2022-11-03T16:25:57;11.70;99.90
24402;DHT22;12539;48.808;11.292;2022-11-03T16:28:23;11.60;99.90
24402;DHT22;12539;48.808;11.292;2022-11-03T16:30:50;11.60;99.90
24402;DHT22;12539;48.808;11.292;2022-11-03T16:33:15;11.60;99.90
24402;DHT22;12539;48.808;11.292;2022-11-03T16:35:41;11.50;99.90
24402;DHT22;12539;48.808;11.292;2022-11-03T16:38:06;11.60;99.90
24402;DHT22;12539;48.808;11.292;2022-11-03T16:40:34;11.50;99.90